SBOSBO MAN / EGCC
Speedbird OnlineSpeedbird Online MAN / EGCC

Manchester Airport
02:18 3.6°C

Location Manchester, United Kingdom
Latitude: 53.35369873046875
Longitude: -2.2749500274658203
Web Airport Website | Wikipedia
Altitude 78 Meter / 257 Feet
Distance 262 KM / 163 Miles
from London.
Time Zone UTC 0 hours (Europe/London)
Codes IATA: MAN
ICAO: EGCC
Runways
RunwayLength (m)Surface
05L3048Asphalt
05R3050Concrete
23L3050Concrete
23R3048Asphalt
Radio
TypeDescriptionFrequency
APPAPP135
ATISATIS128.175
CLDCLNC DEL121.7
GNDGND121.85
TWRTWR118.625
TWR119.4
Live ATC
METAR EGCC 270150Z AUTO 35005KT 9999 FEW014 BKN020 OVC029 04/02 Q1033 TEMPO BKN014
TAF TAF AMD EGCC 270115Z 2701/2806 34005KT 9999 FEW009 SCT035 PROB40 TEMPO 2701/2712 3500 BR -DZRA BKN009 PROB30 TEMPO 2718/2803 1400 BR SCT002 BKN007 PROB30 TEMPO 2803/2806 8000 BKN014
Weather As Of 27 Jan 2023 02:18
Description Overcast clouds
Wind 9 km/h from North (350°)
Cloud Cover 100%
Precipitation Rain: none, Snow: none
Sunrise 08:02
Sunset 16:41
Lounges The Escape Lounge- Terminal 1, Terminal 1
Aspire Lounge (open with limited opening hours), Terminal 1
1903 Lounge , Terminal 2
Escape Lounge , Terminal 2
Escape Lounge (Terminal 3), Terminal 3
Rotations During the last 90 days there were
506 flights from LHR
35 flights from BLL
16 flights from CBG
1 flights from LPL
1 flights from LGW
505 flights to LHR
34 flights to BLL
3 flights to CBG
1 flights to LGW



Support Speedbird Online

© 2017-2023 Speedbird Online